CheckWX is a tool to help pilots better visualize weather data.  It is not intended as a substitute for an official pre-flight weather briefing.

21:01:13 UTC

KPUJ METAR
Paulding Northwest Atlanta Airport
Atlanta, Georgia, USA
Current

6 mins ago

KPUJ 232055Z AUTO 00000KT 10SM SCT043 SCT055 30/18 A3021 RMK AO2
Observed
May-23 @ 20:55 UTC
Visibility
10 SM
Flight Rules
VFR
Cloud Levels
  • Scattered at 4,300' AGL
  • Scattered at 5,500' AGL
Temperature
30°C / 86°F
Dewpoint
18°C / 64°F
Heat Index
31°C / 88°F
Humidity
49%
Altimeter
30.21" Hg
Pressure
1023.02 hPa
Previous

26 mins ago

KPUJ 232035Z AUTO 10004KT 10SM SCT048 SCT055 BKN075 31/18 A3022 RMK AO2
Observed
May-23 @ 20:35 UTC
Wind
  • 100° at 4 KTS
Visibility
10 SM
Flight Rules
VFR
Cloud Levels
  • Scattered at 4,800' AGL
  • Scattered at 5,500' AGL
  • Broken at 7,500' AGL
Temperature
31°C / 88°F
Dewpoint
18°C / 64°F
Heat Index
32°C / 90°F
Humidity
46%
Altimeter
30.22" Hg
Pressure
1023.42 hPa
Previous

2 hours ago

KPUJ 231915Z AUTO 00000KT 10SM SCT047 BKN055 30/18 A3023 RMK AO2
Observed
May-23 @ 19:15 UTC
Visibility
10 SM
Flight Rules
VFR
Cloud Levels
  • Scattered at 4,700' AGL
  • Broken at 5,500' AGL
Temperature
30°C / 86°F
Dewpoint
18°C / 64°F
Heat Index
31°C / 88°F
Humidity
49%
Altimeter
30.23" Hg
Pressure
1023.72 hPa